Time;durP1;ratioP1;P1;durP2;ratioP2;P2;SDS_P1;SDS_P2;PMS_P1;PMS_P2;Temp;Humidity;BMP_temperature;BMP_pressure;BME280_temperature;BME280_humidity;BME280_pressure;Samples;Min_cycle;Max_cycle;Signal;HPM_P1;HPM_P2
2023/12/09 00:00:13;;;;;;;10.52;5.28;;;8.20;99.90;;;;;;4995661;28;20062;-88
2023/12/09 00:02:39;;;;;;;15.93;6.07;;;8.20;99.90;;;;;;4978171;28;20035;-88
2023/12/09 00:05:06;;;;;;;15.50;6.00;;;8.20;99.90;;;;;;4978460;28;20037;-89
2023/12/09 00:07:31;;;;;;;14.23;6.05;;;8.20;99.90;;;;;;4962309;28;20497;-89
2023/12/09 00:09:57;;;;;;;16.83;6.40;;;8.20;99.90;;;;;;4978096;28;20034;-86
2023/12/09 00:12:22;;;;;;;14.63;5.65;;;8.20;99.90;;;;;;4978189;28;20054;-88
2023/12/09 00:14:48;;;;;;;14.27;5.63;;;8.20;99.90;;;;;;4994553;28;20030;-88
2023/12/09 00:17:14;;;;;;;12.85;5.68;;;8.20;99.90;;;;;;4994362;28;20054;-88
2023/12/09 00:19:39;;;;;;;14.27;5.63;;;8.20;99.90;;;;;;4962296;28;20038;-88
2023/12/09 00:22:05;;;;;;;11.75;5.72;;;8.20;99.90;;;;;;4994848;28;20089;-88
2023/12/09 00:24:31;;;;;;;13.55;5.85;;;8.20;99.90;;;;;;4994886;28;20081;-88
2023/12/09 00:26:56;;;;;;;13.07;5.40;;;8.20;99.90;;;;;;4978308;28;20054;-89
2023/12/09 00:29:22;;;;;;;13.93;5.97;;;8.20;99.90;;;;;;4995419;28;20026;-88
2023/12/09 00:31:48;;;;;;;12.55;5.57;;;8.20;99.90;;;;;;4978374;28;20476;-88
2023/12/09 00:34:13;;;;;;;18.52;6.28;;;8.20;99.90;;;;;;4994808;28;20109;-89
2023/12/09 00:36:39;;;;;;;12.50;4.60;;;8.20;99.90;;;;;;4995707;28;20046;-87
2023/12/09 00:39:05;;;;;;;17.73;5.65;;;8.30;99.90;;;;;;5018109;28;20018;-84
2023/12/09 00:41:31;;;;;;;19.70;5.85;;;8.20;99.90;;;;;;5018932;28;20022;-87
2023/12/09 00:43:56;;;;;;;13.60;5.70;;;8.30;99.90;;;;;;5017612;28;20019;-89
2023/12/09 00:46:22;;;;;;;15.82;5.45;;;8.30;99.90;;;;;;4996418;28;20057;-89
2023/12/09 00:48:47;;;;;;;17.05;6.10;;;8.30;99.90;;;;;;4979142;28;20031;-88
2023/12/09 00:51:14;;;;;;;18.42;6.13;;;8.30;99.90;;;;;;4961995;28;20026;-89
2023/12/09 00:53:39;;;;;;;21.55;6.47;;;8.30;99.90;;;;;;4995509;28;20029;-88
2023/12/09 00:56:05;;;;;;;16.40;5.85;;;8.20;99.90;;;;;;4993687;28;20030;-88
2023/12/09 00:58:31;;;;;;;15.20;6.47;;;8.20;99.90;;;;;;4978212;28;20463;-88
2023/12/09 01:00:57;;;;;;;15.40;5.72;;;8.20;99.90;;;;;;4993845;28;20037;-88
2023/12/09 01:03:22;;;;;;;20.42;6.15;;;8.20;99.90;;;;;;4961690;28;20358;-88
2023/12/09 01:05:48;;;;;;;15.63;6.38;;;8.20;99.90;;;;;;4961707;28;20378;-89
2023/12/09 01:08:13;;;;;;;13.68;5.63;;;8.10;99.90;;;;;;4977466;28;20084;-87
2023/12/09 01:10:39;;;;;;;16.63;5.78;;;8.10;99.90;;;;;;4977304;28;20045;-88
2023/12/09 01:13:05;;;;;;;16.17;6.00;;;8.10;99.90;;;;;;4995132;28;20061;-88
2023/12/09 01:15:30;;;;;;;16.08;5.25;;;8.10;99.90;;;;;;4994698;28;20073;-85
2023/12/09 01:17:56;;;;;;;16.83;5.95;;;8.10;99.90;;;;;;4993862;28;20077;-86
2023/12/09 01:20:22;;;;;;;16.95;6.57;;;8.10;99.90;;;;;;4993467;28;20035;-89
2023/12/09 01:22:47;;;;;;;17.58;5.95;;;8.10;99.90;;;;;;4993716;28;20441;-88
2023/12/09 01:25:13;;;;;;;18.90;5.68;;;8.10;99.90;;;;;;4961038;28;20367;-88
2023/12/09 01:27:38;;;;;;;14.88;5.63;;;8.10;99.90;;;;;;4994612;28;20526;-88
2023/12/09 01:30:05;;;;;;;16.98;6.13;;;8.10;99.90;;;;;;4977362;28;20080;-88
2023/12/09 01:32:31;;;;;;;17.95;5.85;;;8.10;99.90;;;;;;4994849;28;20485;-89
2023/12/09 01:34:57;;;;;;;10.43;5.38;;;8.10;99.90;;;;;;4994695;28;20030;-89
2023/12/09 01:37:22;;;;;;;16.98;5.65;;;8.10;99.90;;;;;;4994274;28;20108;-88
2023/12/09 01:39:48;;;;;;;14.75;5.50;;;8.10;99.90;;;;;;4992937;28;20030;-88
2023/12/09 01:42:14;;;;;;;14.77;5.53;;;8.10;99.90;;;;;;4993019;28;20578;-88
2023/12/09 01:44:39;;;;;;;14.23;5.28;;;8.00;99.90;;;;;;4993808;28;20390;-89
2023/12/09 01:47:06;;;;;;;18.40;6.75;;;8.00;99.90;;;;;;4994304;28;20427;-88
2023/12/09 01:49:33;;;;;;;14.85;5.78;;;8.00;99.90;;;;;;4997266;28;20037;-88
2023/12/09 01:52:00;;;;;;;14.18;4.93;;;8.00;99.90;;;;;;4997385;28;20034;-87
2023/12/09 01:54:27;;;;;;;14.23;6.13;;;8.00;99.90;;;;;;4980686;28;20430;-89
2023/12/09 01:56:54;;;;;;;13.60;6.40;;;8.00;99.90;;;;;;4997976;28;20026;-88
2023/12/09 01:59:20;;;;;;;15.07;5.25;;;8.00;99.90;;;;;;4997079;28;20026;-88
2023/12/09 02:01:47;;;;;;;15.60;5.22;;;8.00;99.90;;;;;;4983772;28;20030;-88
2023/12/09 02:04:14;;;;;;;13.95;4.88;;;8.00;99.90;;;;;;5020087;28;20014;-85
2023/12/09 02:06:40;;;;;;;14.52;6.10;;;7.90;99.90;;;;;;5005158;28;20026;-87
2023/12/09 02:09:06;;;;;;;17.45;6.03;;;7.90;99.90;;;;;;5020138;28;20034;-88
2023/12/09 02:11:50;;;;;;;17.20;5.55;;;7.90;99.90;;;;;;5011656;28;20054;-88
2023/12/09 02:14:23;;;;;;;18.17;5.72;;;7.90;99.90;;;;;;4998847;28;20018;-88
2023/12/09 02:17:12;;;;;;;15.10;5.50;;;7.90;99.90;;;;;;4997186;28;20022;-88
2023/12/09 02:19:39;;;;;;;11.82;5.22;;;7.90;99.90;;;;;;4996805;28;20030;-88
2023/12/09 02:22:09;;;;;;;19.10;6.40;;;7.90;99.90;;;;;;4997498;28;20544;-88
2023/12/09 02:24:35;;;;;;;11.95;5.25;;;7.90;99.90;;;;;;4997467;28;20536;-89
2023/12/09 02:27:11;;;;;;;16.20;5.78;;;7.90;99.90;;;;;;4997942;28;20113;-89
2023/12/09 02:29:59;;;;;;;17.95;6.47;;;7.90;99.90;;;;;;4996187;28;20026;-87
2023/12/09 02:32:29;;;;;;;13.27;5.40;;;7.90;99.90;;;;;;4996275;28;20030;-88
2023/12/09 02:34:56;;;;;;;17.55;5.43;;;7.90;99.90;;;;;;4997626;28;20026;-89
2023/12/09 02:37:22;;;;;;;18.17;5.10;;;7.90;99.90;;;;;;4997539;28;20027;-88
2023/12/09 02:39:51;;;;;;;15.15;6.60;;;7.90;99.90;;;;;;4964097;28;20038;-88
2023/12/09 02:42:18;;;;;;;14.13;5.35;;;7.80;99.90;;;;;;4997281;28;20027;-86
2023/12/09 02:44:45;;;;;;;13.00;5.55;;;7.80;99.90;;;;;;4996212;28;20038;-85
2023/12/09 02:47:14;;;;;;;15.27;5.15;;;7.90;99.90;;;;;;4996256;28;20536;-86
2023/12/09 02:49:41;;;;;;;16.80;5.82;;;7.90;99.90;;;;;;4997288;28;20553;-85
2023/12/09 02:52:07;;;;;;;14.90;5.38;;;7.90;99.90;;;;;;4980402;28;20030;-88
2023/12/09 02:54:32;;;;;;;14.68;5.60;;;7.80;99.90;;;;;;4980025;28;20065;-89
2023/12/09 02:56:58;;;;;;;12.63;5.35;;;7.80;99.90;;;;;;4979706;28;20504;-88
2023/12/09 02:59:24;;;;;;;13.73;5.47;;;7.80;99.90;;;;;;4995354;28;20031;-88
2023/12/09 03:01:49;;;;;;;12.25;5.32;;;7.80;99.90;;;;;;4963657;28;20459;-88
2023/12/09 03:04:15;;;;;;;13.82;5.43;;;7.80;99.90;;;;;;4979510;28;20093;-87
2023/12/09 03:06:40;;;;;;;10.43;4.80;;;7.80;99.90;;;;;;4996141;28;20027;-88
2023/12/09 03:09:06;;;;;;;13.25;5.68;;;7.80;99.90;;;;;;4994649;28;20366;-88
2023/12/09 03:11:32;;;;;;;19.85;6.30;;;7.80;99.90;;;;;;4996217;28;20054;-87
2023/12/09 03:13:57;;;;;;;12.63;5.18;;;7.70;99.90;;;;;;4995379;28;20529;-89
2023/12/09 03:16:23;;;;;;;16.77;5.50;;;7.70;99.90;;;;;;4995516;28;20026;-88
2023/12/09 03:18:49;;;;;;;13.43;5.20;;;7.70;99.90;;;;;;4995342;28;20433;-87
2023/12/09 03:21:15;;;;;;;14.48;5.55;;;7.70;99.90;;;;;;4995416;28;20038;-88
2023/12/09 03:23:44;;;;;;;17.65;7.20;;;7.70;99.90;;;;;;4997057;28;20062;-89
2023/12/09 03:26:17;;;;;;;13.70;5.60;;;7.60;99.90;;;;;;4979625;28;20026;-88
2023/12/09 03:28:43;;;;;;;13.68;5.60;;;7.60;99.90;;;;;;4996532;28;20018;-88
2023/12/09 03:31:13;;;;;;;15.35;5.38;;;7.60;99.90;;;;;;5017594;28;20066;-89
2023/12/09 03:33:39;;;;;;;13.07;5.07;;;7.60;99.90;;;;;;5020085;28;20014;-87
2023/12/09 03:36:07;;;;;;;13.55;5.13;;;7.60;99.90;;;;;;5020061;28;20045;-88
2023/12/09 03:38:33;;;;;;;15.25;5.82;;;7.60;99.90;;;;;;4997327;28;20117;-88
2023/12/09 03:40:59;;;;;;;14.35;4.97;;;7.60;99.90;;;;;;4981379;28;20069;-88
2023/12/09 03:43:24;;;;;;;14.68;5.75;;;7.60;99.90;;;;;;4979457;28;20034;-86
2023/12/09 03:45:50;;;;;;;14.30;6.20;;;7.60;99.90;;;;;;4995425;28;20188;-88
2023/12/09 03:48:16;;;;;;;14.32;5.22;;;7.50;99.90;;;;;;4995834;28;20031;-88
2023/12/09 03:50:42;;;;;;;17.27;5.72;;;7.50;99.90;;;;;;4994715;28;20084;-89
2023/12/09 03:53:07;;;;;;;14.10;5.32;;;7.50;99.90;;;;;;4995042;28;20030;-88
2023/12/09 03:55:33;;;;;;;15.73;5.57;;;7.50;99.90;;;;;;4996096;28;20494;-88
2023/12/09 03:57:59;;;;;;;13.68;5.28;;;7.50;99.90;;;;;;4962844;28;20058;-88
2023/12/09 04:00:24;;;;;;;11.93;5.53;;;7.50;99.90;;;;;;4995891;28;20034;-88
2023/12/09 04:02:50;;;;;;;13.57;5.10;;;7.50;99.90;;;;;;4978698;28;20034;-89
2023/12/09 04:05:15;;;;;;;14.40;5.53;;;7.50;99.90;;;;;;4995473;28;20514;-89
2023/12/09 04:07:41;;;;;;;12.20;5.00;;;7.50;99.90;;;;;;4978639;28;20034;-88
2023/12/09 04:10:09;;;;;;;18.35;5.50;;;7.50;99.90;;;;;;4994484;28;20169;-88
2023/12/09 04:12:34;;;;;;;14.10;5.57;;;7.50;99.90;;;;;;4977991;28;20601;-88
2023/12/09 04:15:01;;;;;;;11.95;5.05;;;7.50;99.90;;;;;;4994298;28;20117;-88
2023/12/09 04:17:27;;;;;;;15.65;5.38;;;7.50;99.90;;;;;;4978150;28;20382;-88
2023/12/09 04:19:52;;;;;;;11.52;4.18;;;7.60;99.90;;;;;;4995641;28;20030;-88
2023/12/09 04:22:19;;;;;;;18.00;4.90;;;7.60;99.90;;;;;;4978111;28;20038;-88
2023/12/09 04:24:45;;;;;;;15.90;5.40;;;7.60;99.90;;;;;;4994525;28;20030;-89
2023/12/09 04:27:10;;;;;;;17.50;5.55;;;7.60;99.90;;;;;;4994458;28;20081;-89
2023/12/09 04:29:36;;;;;;;12.50;5.22;;;7.60;99.90;;;;;;4995123;28;20035;-88
2023/12/09 04:32:02;;;;;;;15.35;6.05;;;7.60;99.90;;;;;;4962172;28;20382;-88
2023/12/09 04:34:28;;;;;;;13.60;4.68;;;7.60;99.90;;;;;;4994389;28;20038;-89
2023/12/09 04:36:53;;;;;;;14.10;4.72;;;7.60;99.90;;;;;;4995337;28;20033;-87
2023/12/09 04:39:19;;;;;;;13.02;4.50;;;7.70;99.90;;;;;;4993892;28;20550;-88
2023/12/09 04:41:46;;;;;;;10.05;4.50;;;7.70;99.90;;;;;;4961685;28;20100;-88
2023/12/09 04:44:12;;;;;;;15.35;4.50;;;7.70;99.90;;;;;;4978119;28;20031;-88
2023/12/09 04:46:38;;;;;;;12.93;4.68;;;7.70;99.90;;;;;;4995185;28;20033;-88
2023/12/09 04:49:04;;;;;;;12.88;4.88;;;7.70;99.90;;;;;;4978498;28;20026;-88
2023/12/09 04:51:30;;;;;;;12.07;4.97;;;7.60;99.90;;;;;;4978470;28;20031;-88
2023/12/09 04:53:55;;;;;;;12.15;4.40;;;7.60;99.90;;;;;;4995017;28;20030;-89
2023/12/09 04:56:21;;;;;;;12.77;5.55;;;7.60;99.90;;;;;;4990704;28;20010;-89
2023/12/09 04:58:47;;;;;;;15.85;5.47;;;7.60;99.90;;;;;;5018537;28;20026;-87
2023/12/09 05:01:12;;;;;;;11.20;5.03;;;7.60;99.90;;;;;;5017751;28;20029;-85
2023/12/09 05:03:38;;;;;;;14.68;5.18;;;7.60;99.90;;;;;;5017198;28;20034;-89
2023/12/09 05:06:04;;;;;;;14.00;5.55;;;7.60;99.90;;;;;;4997298;28;20023;-88
2023/12/09 05:08:30;;;;;;;15.48;5.35;;;7.50;99.90;;;;;;4994663;28;20030;-89
2023/12/09 05:10:56;;;;;;;12.13;4.72;;;7.50;99.90;;;;;;4993937;28;20038;-88
2023/12/09 05:13:21;;;;;;;13.02;5.25;;;7.50;99.90;;;;;;4994202;28;20034;-88
2023/12/09 05:15:48;;;;;;;16.65;5.30;;;7.50;99.90;;;;;;4977272;28;20031;-87
2023/12/09 05:18:14;;;;;;;14.95;5.03;;;7.50;99.90;;;;;;4995153;28;20382;-88
2023/12/09 05:20:40;;;;;;;15.07;5.07;;;7.50;99.90;;;;;;4993672;28;20037;-88
2023/12/09 05:23:06;;;;;;;10.70;4.40;;;7.50;99.90;;;;;;4996638;28;20065;-88
2023/12/09 05:25:32;;;;;;;14.00;4.60;;;7.50;99.90;;;;;;4997867;28;20030;-87
2023/12/09 05:27:58;;;;;;;17.80;5.13;;;7.50;99.90;;;;;;4981750;28;20121;-88
2023/12/09 05:30:23;;;;;;;12.02;5.20;;;7.50;99.90;;;;;;4999111;28;20037;-88
2023/12/09 05:32:49;;;;;;;12.95;4.90;;;7.40;99.90;;;;;;4981494;28;20034;-89
2023/12/09 05:35:15;;;;;;;16.45;5.03;;;7.40;99.90;;;;;;4997446;28;20117;-88
2023/12/09 05:37:40;;;;;;;14.75;4.70;;;7.40;99.90;;;;;;4998501;28;20035;-88
2023/12/09 05:40:07;;;;;;;13.77;5.38;;;7.40;99.90;;;;;;4981143;28;20462;-90
2023/12/09 05:42:33;;;;;;;14.27;4.78;;;7.40;99.90;;;;;;4965494;28;20084;-88
2023/12/09 05:44:59;;;;;;;13.05;4.90;;;7.40;99.90;;;;;;4997375;28;20030;-89
2023/12/09 05:47:25;;;;;;;12.00;4.43;;;7.40;99.90;;;;;;4998530;28;20034;-89
2023/12/09 05:49:50;;;;;;;10.15;4.40;;;7.40;99.90;;;;;;4997012;28;20450;-90
2023/12/09 05:52:17;;;;;;;10.52;4.47;;;7.40;99.90;;;;;;4997334;28;20378;-88
2023/12/09 05:54:43;;;;;;;15.73;5.75;;;7.30;99.90;;;;;;4998093;28;20022;-88
2023/12/09 05:57:08;;;;;;;12.73;4.82;;;7.30;99.90;;;;;;4980760;28;20057;-88
2023/12/09 05:59:34;;;;;;;12.93;4.60;;;7.30;99.90;;;;;;4996604;28;20434;-88
2023/12/09 06:02:00;;;;;;;10.20;4.45;;;7.30;99.90;;;;;;4998076;28;20104;-89
2023/12/09 06:04:25;;;;;;;13.18;4.07;;;7.30;99.90;;;;;;4998182;28;20050;-89
2023/12/09 06:06:51;;;;;;;10.40;4.38;;;7.30;99.90;;;;;;4980656;28;20041;-88
2023/12/09 06:09:17;;;;;;;11.40;4.57;;;7.30;99.90;;;;;;4998283;28;20371;-88
2023/12/09 06:11:42;;;;;;;10.77;4.55;;;7.30;99.90;;;;;;4964296;28;20058;-85
2023/12/09 06:14:08;;;;;;;9.68;4.18;;;7.30;99.90;;;;;;4981114;28;20066;-88
2023/12/09 06:16:34;;;;;;;10.63;4.25;;;7.30;99.90;;;;;;4997444;28;20034;-88
2023/12/09 06:18:59;;;;;;;12.00;4.40;;;7.30;99.90;;;;;;5000869;28;20042;-89
2023/12/09 06:21:26;;;;;;;15.55;4.78;;;7.20;99.90;;;;;;5010826;28;20030;-89
2023/12/09 06:23:52;;;;;;;14.00;4.55;;;7.30;99.90;;;;;;5020531;28;20026;-87
2023/12/09 06:26:19;;;;;;;10.68;3.38;;;7.20;99.90;;;;;;5021113;28;20018;-87
2023/12/09 06:28:45;;;;;;;17.13;4.43;;;7.30;99.90;;;;;;5007850;28;20126;-83
2023/12/09 06:31:10;;;;;;;10.60;4.53;;;7.30;99.90;;;;;;5009935;28;20037;-89
2023/12/09 06:33:37;;;;;;;12.35;4.38;;;7.20;99.90;;;;;;4998778;28;20026;-88
2023/12/09 06:36:03;;;;;;;10.23;3.83;;;7.20;99.90;;;;;;4998326;28;20050;-88
2023/12/09 06:38:29;;;;;;;11.63;3.92;;;7.20;99.90;;;;;;4997718;28;20120;-88
2023/12/09 06:40:55;;;;;;;15.23;4.10;;;7.20;99.90;;;;;;4996391;28;20034;-88
2023/12/09 06:43:21;;;;;;;13.07;4.30;;;7.20;99.90;;;;;;4996675;28;20034;-88
2023/12/09 06:45:46;;;;;;;8.45;3.35;;;7.20;99.90;;;;;;4996270;28;20065;-87
2023/12/09 06:48:12;;;;;;;11.32;3.85;;;7.20;99.90;;;;;;4996351;28;20034;-88
2023/12/09 06:50:39;;;;;;;7.05;3.63;;;7.20;99.90;;;;;;4996326;28;20033;-89
2023/12/09 06:53:04;;;;;;;13.73;4.57;;;7.30;99.90;;;;;;4997299;28;20463;-89
2023/12/09 06:55:30;;;;;;;14.05;5.15;;;7.30;99.90;;;;;;4997542;28;20037;-89
2023/12/09 06:57:56;;;;;;;8.13;3.95;;;7.30;99.90;;;;;;4996184;28;20390;-88
2023/12/09 07:00:22;;;;;;;11.48;3.75;;;7.30;99.90;;;;;;4980457;28;20031;-90
2023/12/09 07:02:47;;;;;;;10.95;3.92;;;7.30;99.90;;;;;;4996161;28;20034;-89
2023/12/09 07:05:14;;;;;;;11.32;3.70;;;7.30;99.90;;;;;;4996157;28;20027;-88
2023/12/09 07:07:42;;;;;;;9.90;4.28;;;7.30;99.90;;;;;;4995784;28;20031;-89
2023/12/09 07:10:08;;;;;;;12.15;3.95;;;7.30;99.90;;;;;;4997406;28;20106;-88
2023/12/09 07:12:35;;;;;;;9.00;3.72;;;7.40;99.90;;;;;;4996309;28;20104;-88
2023/12/09 07:15:01;;;;;;;10.52;4.07;;;7.40;99.90;;;;;;4995939;28;20042;-89
2023/12/09 07:17:27;;;;;;;10.85;3.97;;;7.40;99.90;;;;;;4980044;28;20030;-88
2023/12/09 07:19:52;;;;;;;8.75;3.60;;;7.40;99.90;;;;;;4995601;28;20038;-88
2023/12/09 07:22:24;;;;;;;16.02;4.93;;;7.40;99.90;;;;;;4995852;28;20030;-88
2023/12/09 07:24:50;;;;;;;8.75;3.42;;;7.40;99.90;;;;;;4997265;28;20050;-88
2023/12/09 07:27:16;;;;;;;12.38;3.45;;;7.40;99.90;;;;;;4995707;28;20130;-89
2023/12/09 07:29:41;;;;;;;12.32;4.25;;;7.50;99.90;;;;;;4995678;28;20463;-90
2023/12/09 07:32:07;;;;;;;10.57;3.60;;;7.40;99.90;;;;;;4979373;28;20033;-89
2023/12/09 07:34:36;;;;;;;9.05;3.13;;;7.50;99.90;;;;;;4996630;28;20037;-89
2023/12/09 07:37:01;;;;;;;8.27;3.20;;;7.50;99.90;;;;;;4995747;28;20026;-88
2023/12/09 07:39:27;;;;;;;14.13;3.47;;;7.50;99.90;;;;;;4996754;28;20089;-88
2023/12/09 07:41:53;;;;;;;9.93;3.60;;;7.50;99.90;;;;;;4995738;28;20044;-89
2023/12/09 07:44:19;;;;;;;13.05;3.78;;;7.50;99.90;;;;;;4979511;28;20030;-89
2023/12/09 07:46:45;;;;;;;10.65;3.22;;;7.50;99.90;;;;;;4996447;28;20050;-88
2023/12/09 07:49:11;;;;;;;12.80;3.63;;;7.60;99.90;;;;;;5013626;28;20030;-88
2023/12/09 07:51:37;;;;;;;12.60;4.20;;;7.50;99.90;;;;;;5017579;28;20018;-86
2023/12/09 07:54:03;;;;;;;12.50;3.25;;;7.50;99.90;;;;;;5019033;28;20045;-86
2023/12/09 07:56:28;;;;;;;12.70;4.07;;;7.60;99.90;;;;;;5013762;28;20030;-88
2023/12/09 07:58:54;;;;;;;8.93;3.35;;;7.60;99.90;;;;;;4979151;28;20081;-87
2023/12/09 08:01:20;;;;;;;8.50;3.15;;;7.50;99.90;;;;;;4963500;28;20037;-91
2023/12/09 08:03:45;;;;;;;8.63;2.45;;;7.60;99.90;;;;;;4979440;28;20038;-91
2023/12/09 08:06:11;;;;;;;9.57;3.42;;;7.60;99.90;;;;;;4978921;28;20033;-89
2023/12/09 08:08:38;;;;;;;8.52;3.30;;;7.60;99.90;;;;;;4979362;28;20033;-90
2023/12/09 08:11:05;;;;;;;9.15;3.47;;;7.60;99.90;;;;;;4978860;28;20462;-91
2023/12/09 08:13:31;;;;;;;9.98;3.72;;;7.60;99.90;;;;;;4996338;28;20033;-89
2023/12/09 08:15:56;;;;;;;13.77;3.70;;;7.60;99.90;;;;;;4995252;28;20034;-90
2023/12/09 08:18:22;;;;;;;14.07;3.05;;;7.70;99.90;;;;;;4962536;28;20033;-91
2023/12/09 08:20:48;;;;;;;8.05;2.58;;;7.70;99.90;;;;;;4979012;28;20034;-90
2023/12/09 08:23:13;;;;;;;10.45;3.20;;;7.70;99.90;;;;;;4978546;28;20179;-89
2023/12/09 08:25:39;;;;;;;9.90;3.00;;;7.70;99.90;;;;;;4962773;28;20030;-89
2023/12/09 08:28:05;;;;;;;6.18;2.78;;;7.70;99.90;;;;;;4978111;28;20041;-88
2023/12/09 08:30:32;;;;;;;8.95;3.13;;;7.70;99.90;;;;;;4994848;28;20162;-90
2023/12/09 08:32:58;;;;;;;9.60;2.95;;;7.70;99.90;;;;;;4978804;28;20034;-89
2023/12/09 08:35:24;;;;;;;7.22;3.38;;;7.80;99.90;;;;;;4995503;28;20033;-88
2023/12/09 08:37:49;;;;;;;8.32;2.72;;;7.80;99.90;;;;;;4995736;28;20030;-86
2023/12/09 08:40:15;;;;;;;7.38;3.00;;;7.80;99.90;;;;;;4978291;28;20068;-87
2023/12/09 08:42:43;;;;;;;9.75;2.70;;;7.80;99.90;;;;;;4978344;28;20030;-88
2023/12/09 08:45:11;;;;;;;9.93;3.50;;;7.90;99.90;;;;;;4995439;28;20033;-88
2023/12/09 08:47:37;;;;;;;6.97;2.15;;;7.90;99.90;;;;;;4994177;28;20476;-89
2023/12/09 08:50:06;;;;;;;9.30;3.17;;;7.90;99.90;;;;;;4995452;28;20447;-88
2023/12/09 08:52:32;;;;;;;8.02;3.15;;;7.90;99.90;;;;;;4994519;28;20030;-91
2023/12/09 08:54:59;;;;;;;10.90;2.60;;;7.90;99.90;;;;;;4995801;28;20414;-90
2023/12/09 08:57:25;;;;;;;8.35;2.33;;;7.90;99.90;;;;;;4994607;28;20026;-90
2023/12/09 08:59:51;;;;;;;7.93;2.60;;;7.90;99.90;;;;;;4978161;28;20030;-90
2023/12/09 09:02:16;;;;;;;9.82;2.80;;;8.00;99.90;;;;;;4962315;28;20035;-89
2023/12/09 09:04:42;;;;;;;8.25;2.40;;;8.00;99.90;;;;;;4995106;28;20034;-89
2023/12/09 09:07:09;;;;;;;4.82;2.38;;;8.00;99.90;;;;;;4996384;28;20037;-91
2023/12/09 09:09:37;;;;;;;8.05;2.70;;;8.00;99.90;;;;;;4997105;28;20053;-91
2023/12/09 09:12:06;;;;;;;7.50;2.53;;;8.00;99.90;;;;;;4998297;28;20051;-90
2023/12/09 09:14:33;;;;;;;7.07;2.63;;;8.10;99.90;;;;;;4994467;28;20093;-89
2023/12/09 09:16:59;;;;;;;10.43;2.95;;;8.10;99.90;;;;;;5017665;28;20066;-88
2023/12/09 09:19:25;;;;;;;7.35;2.45;;;8.10;99.90;;;;;;5000545;28;20065;-89
2023/12/09 09:21:52;;;;;;;5.03;2.45;;;8.10;99.90;;;;;;4993602;28;20030;-88
2023/12/09 09:24:18;;;;;;;7.03;2.25;;;8.10;99.90;;;;;;4997112;28;20034;-89
2023/12/09 09:26:43;;;;;;;10.15;2.75;;;8.10;99.90;;;;;;4995872;28;20550;-88
2023/12/09 09:29:10;;;;;;;6.60;2.47;;;8.10;99.90;;;;;;4962077;28;20030;-88
2023/12/09 09:31:36;;;;;;;9.25;2.28;;;8.20;99.90;;;;;;4995199;28;20482;-87
2023/12/09 09:34:01;;;;;;;8.95;2.90;;;8.20;99.90;;;;;;4978004;28;20026;-90
2023/12/09 09:36:27;;;;;;;6.05;2.50;;;8.20;99.90;;;;;;4994257;28;20030;-87
2023/12/09 09:38:53;;;;;;;7.28;2.90;;;8.20;99.90;;;;;;4978258;28;20034;-91
2023/12/09 09:41:27;;;;;;;13.50;2.58;;;8.20;99.90;;;;;;4978048;28;20030;-92
2023/12/09 09:44:01;;;;;;;7.45;3.20;;;8.20;99.90;;;;;;4994588;28;20038;-90
2023/12/09 09:46:28;;;;;;;7.57;2.53;;;8.30;99.90;;;;;;4995814;28;20023;-88
2023/12/09 09:48:55;;;;;;;7.75;2.60;;;8.30;99.90;;;;;;4996512;28;20050;-91
2023/12/09 09:51:28;;;;;;;7.93;2.50;;;8.30;99.90;;;;;;4997799;28;20030;-90
2023/12/09 09:54:14;;;;;;;9.68;2.30;;;8.30;99.90;;;;;;5000457;28;20200;-89
2023/12/09 09:56:42;;;;;;;7.43;2.65;;;8.30;99.90;;;;;;4994626;28;20034;-90
2023/12/09 09:59:09;;;;;;;7.75;2.38;;;8.40;99.90;;;;;;4994220;28;20023;-93
2023/12/09 10:01:37;;;;;;;7.72;2.30;;;8.40;99.90;;;;;;4994946;28;20542;-91
2023/12/09 10:04:03;;;;;;;7.82;2.05;;;8.40;99.90;;;;;;4995329;28;20117;-90
2023/12/09 10:06:30;;;;;;;7.20;2.63;;;8.40;99.90;;;;;;4978097;28;20062;-92
2023/12/09 10:08:57;;;;;;;7.57;2.80;;;8.40;99.90;;;;;;4994416;28;20056;-92
2023/12/09 10:11:23;;;;;;;5.95;2.30;;;8.50;99.90;;;;;;4997429;28;20058;-92
2023/12/09 10:13:49;;;;;;;5.72;2.15;;;8.50;99.90;;;;;;4997356;28;20077;-90
2023/12/09 10:16:15;;;;;;;10.60;2.55;;;8.50;99.90;;;;;;4998450;28;20045;-89
2023/12/09 10:18:47;;;;;;;8.60;2.40;;;8.50;99.90;;;;;;4981574;28;20396;-89
2023/12/09 10:21:14;;;;;;;9.60;2.72;;;8.50;99.90;;;;;;4997320;28;20030;-91
2023/12/09 10:23:40;;;;;;;4.72;2.55;;;8.50;99.90;;;;;;4998021;28;20474;-92
2023/12/09 10:26:07;;;;;;;8.23;2.78;;;8.50;99.90;;;;;;4998372;28;20100;-92
2023/12/09 10:28:33;;;;;;;11.13;2.67;;;8.60;99.90;;;;;;4998614;28;20037;-91
2023/12/09 10:31:01;;;;;;;6.65;2.00;;;8.60;99.90;;;;;;4998623;28;20031;-92
2023/12/09 10:33:37;;;;;;;10.98;2.10;;;8.60;99.90;;;;;;4998851;28;20026;-89
2023/12/09 10:36:05;;;;;;;11.30;2.55;;;8.60;99.90;;;;;;4998787;28;20094;-90
2023/12/09 10:38:31;;;;;;;6.25;2.60;;;8.70;99.90;;;;;;4981744;28;20026;-90
2023/12/09 10:40:57;;;;;;;6.13;2.08;;;8.60;99.90;;;;;;4997790;28;20470;-91
2023/12/09 10:43:24;;;;;;;7.35;2.08;;;8.70;99.90;;;;;;4999953;28;20030;-88
2023/12/09 10:45:49;;;;;;;5.78;2.15;;;8.70;99.90;;;;;;5020338;28;20011;-92
2023/12/09 10:48:15;;;;;;;6.38;1.88;;;8.70;99.90;;;;;;5021254;28;20022;-91
2023/12/09 10:50:44;;;;;;;6.00;2.10;;;8.70;99.90;;;;;;5017156;28;20435;-92
2023/12/09 10:53:10;;;;;;;4.97;2.15;;;8.70;99.90;;;;;;4997591;28;20019;-90
2023/12/09 10:55:36;;;;;;;7.18;2.28;;;8.80;99.90;;;;;;4998017;28;20356;-90
2023/12/09 10:58:04;;;;;;;8.30;2.30;;;8.80;99.90;;;;;;4980745;28;20033;-90
2023/12/09 11:00:31;;;;;;;6.45;2.35;;;8.80;99.90;;;;;;4997187;28;20113;-93
2023/12/09 11:02:58;;;;;;;6.65;2.42;;;8.90;99.90;;;;;;4996723;28;20433;-92
2023/12/09 11:05:25;;;;;;;7.68;2.17;;;8.90;99.90;;;;;;4996593;28;20034;-92
2023/12/09 11:07:51;;;;;;;5.65;2.10;;;8.90;99.90;;;;;;4964377;28;20460;-91
2023/12/09 11:10:19;;;;;;;9.40;2.35;;;8.90;99.90;;;;;;4980450;28;20137;-91
2023/12/09 11:12:47;;;;;;;8.25;2.05;;;8.90;99.90;;;;;;4997203;28;20061;-89
2023/12/09 11:15:13;;;;;;;10.30;2.30;;;8.90;99.90;;;;;;4997102;28;20078;-89
2023/12/09 11:17:41;;;;;;;7.47;2.45;;;8.90;99.90;;;;;;4997130;28;20033;-90
2023/12/09 11:20:12;;;;;;;5.20;2.22;;;8.90;99.90;;;;;;4995786;28;20038;-89
2023/12/09 11:22:43;;;;;;;7.93;2.10;;;8.90;99.90;;;;;;4997451;28;20513;-91
2023/12/09 11:25:12;;;;;;;10.88;3.33;;;8.90;99.90;;;;;;4997164;28;20050;-91
2023/12/09 11:27:38;;;;;;;5.65;2.10;;;8.90;99.90;;;;;;4995960;28;20030;-90
2023/12/09 11:30:05;;;;;;;7.70;2.63;;;8.90;99.90;;;;;;4979829;28;20035;-91
2023/12/09 11:32:31;;;;;;;7.20;2.22;;;8.90;99.90;;;;;;4979605;28;20030;-91
2023/12/09 11:34:58;;;;;;;9.40;1.95;;;8.90;99.90;;;;;;4996803;28;20027;-90
2023/12/09 11:37:28;;;;;;;5.90;1.90;;;8.90;99.90;;;;;;4996831;28;20027;-86
2023/12/09 11:39:56;;;;;;;7.27;2.43;;;8.90;99.90;;;;;;4996026;28;20030;-92
2023/12/09 11:42:22;;;;;;;8.07;1.95;;;8.90;99.90;;;;;;4996061;28;20114;-90
2023/12/09 11:44:48;;;;;;;4.40;1.83;;;8.90;99.90;;;;;;4995740;28;20386;-89
2023/12/09 11:47:14;;;;;;;6.43;1.95;;;8.80;99.90;;;;;;4996796;28;20022;-91
2023/12/09 11:49:41;;;;;;;5.25;1.83;;;8.80;99.90;;;;;;4996805;28;20113;-90
2023/12/09 11:52:08;;;;;;;6.70;1.83;;;8.90;99.90;;;;;;4995809;28;20085;-90
2023/12/09 11:54:34;;;;;;;8.88;2.28;;;8.90;99.90;;;;;;4995871;28;20037;-90
2023/12/09 11:57:00;;;;;;;7.47;1.90;;;8.90;99.90;;;;;;4979828;28;20116;-90
2023/12/09 11:59:25;;;;;;;7.25;2.33;;;8.90;99.90;;;;;;4979717;28;20066;-90
2023/12/09 12:01:51;;;;;;;5.95;1.90;;;8.90;99.90;;;;;;4995613;28;20038;-91
2023/12/09 12:04:17;;;;;;;7.15;2.05;;;8.90;99.90;;;;;;4979740;28;20035;-91
2023/12/09 12:06:42;;;;;;;5.15;1.90;;;8.90;99.90;;;;;;4995588;28;20023;-90
2023/12/09 12:09:09;;;;;;;18.73;3.15;;;8.90;99.90;;;;;;4997967;28;20053;-90
2023/12/09 12:11:35;;;;;;;6.45;2.03;;;8.90;99.90;;;;;;5013736;28;20042;-87
2023/12/09 12:14:01;;;;;;;7.05;2.45;;;8.90;99.90;;;;;;5019074;28;20015;-88
2023/12/09 12:16:26;;;;;;;7.47;1.90;;;8.90;99.90;;;;;;5002713;28;20018;-87
2023/12/09 12:18:55;;;;;;;6.40;2.28;;;8.90;99.90;;;;;;5002194;28;20013;-89
2023/12/09 12:21:21;;;;;;;9.48;3.22;;;9.00;99.90;;;;;;4998601;28;20073;-90
2023/12/09 12:23:53;;;;;;;6.20;2.50;;;9.00;99.90;;;;;;4995488;28;20053;-92
2023/12/09 12:26:19;;;;;;;9.77;2.55;;;9.00;99.90;;;;;;4996902;28;20161;-91
2023/12/09 12:28:51;;;;;;;8.77;2.85;;;9.00;99.90;;;;;;4993824;28;20038;-87
2023/12/09 12:31:17;;;;;;;6.13;2.00;;;9.00;99.90;;;;;;4963228;28;20072;-87
2023/12/09 12:33:42;;;;;;;8.38;2.50;;;9.00;99.90;;;;;;4977798;28;20076;-88
2023/12/09 12:36:09;;;;;;;5.70;1.80;;;9.00;99.90;;;;;;4995131;28;20034;-89
2023/12/09 12:38:35;;;;;;;8.45;2.42;;;9.00;99.90;;;;;;4978288;28;20030;-89
2023/12/09 12:41:02;;;;;;;10.15;3.95;;;9.00;99.90;;;;;;4994636;28;20039;-90
2023/12/09 12:43:30;;;;;;;7.07;2.10;;;9.00;99.90;;;;;;4995459;28;20037;-88
2023/12/09 12:45:58;;;;;;;8.40;2.35;;;9.00;99.90;;;;;;4994248;28;20344;-90